Time;durP1;ratioP1;P1;durP2;ratioP2;P2;SDS_P1;SDS_P2;PMS_P1;PMS_P2;Temp;Humidity;BMP_temperature;BMP_pressure;BME280_temperature;BME280_humidity;BME280_pressure;Samples;Min_cycle;Max_cycle;Signal;HPM_P1;HPM_P2
2023/12/04 00:00:45;;;;;;;0.15;0.15;;;;;;;2.64;45.86;102071.16;5009858;28;20492;-88
2023/12/04 00:03:13;;;;;;;3.00;0.40;;;;;;;2.62;45.57;102081.72;5009687;28;20384;-90
2023/12/04 00:05:43;;;;;;;0.10;0.10;;;;;;;2.52;45.97;102077.06;5010546;28;20384;-90
2023/12/04 00:08:11;;;;;;;0.10;0.10;;;;;;;2.28;46.23;102077.47;5012907;28;21197;-88
2023/12/04 00:10:44;;;;;;;0.10;0.10;;;;;;;2.41;46.34;102080.25;5011066;28;20392;-89
2023/12/04 00:13:15;;;;;;;0.57;0.57;;;;;;;2.33;46.17;102092.94;5014367;28;20503;-89
2023/12/04 00:15:41;;;;;;;0.10;0.10;;;;;;;2.17;46.26;102085.06;5012682;28;20387;-89
2023/12/04 00:18:08;;;;;;;0.10;0.10;;;;;;;2.29;46.54;102095.69;5013982;28;20404;-89
2023/12/04 00:20:37;;;;;;;0.30;0.30;;;;;;;2.25;46.03;102102.03;5011769;28;20991;-88
2023/12/04 00:23:03;;;;;;;0.20;0.20;;;;;;;2.26;46.21;102103.72;5012811;28;20396;-90
2023/12/04 00:25:35;;;;;;;0.90;0.50;;;;;;;2.48;46.13;102105.19;5015152;28;20395;-89
2023/12/04 00:28:00;;;;;;;0.10;0.10;;;;;;;2.25;46.03;102106.41;5013012;28;20435;-88
2023/12/04 00:30:26;;;;;;;0.10;0.10;;;;;;;2.42;45.97;102110.75;5012897;28;20489;-88
2023/12/04 00:32:51;;;;;;;0.20;0.20;;;;;;;2.49;46.13;102118.19;5013358;28;20418;-87
2023/12/04 00:35:17;;;;;;;0.10;0.10;;;;;;;2.46;45.69;102105.25;5014122;28;20396;-88
2023/12/04 00:37:43;;;;;;;0.20;0.20;;;;;;;2.44;45.75;102104.50;5012679;28;20389;-87
2023/12/04 00:40:09;;;;;;;0.10;0.10;;;;;;;2.46;45.64;102110.47;5015212;28;20434;-88
2023/12/04 00:42:39;;;;;;;0.10;0.10;;;;;;;2.40;45.61;102097.75;5027170;28;20479;-87
2023/12/04 00:45:05;;;;;;;0.10;0.10;;;;;;;2.57;45.89;102117.75;5014391;28;20913;-88
2023/12/04 00:47:33;;;;;;;0.20;0.20;;;;;;;2.56;45.37;102110.84;5013168;28;20823;-88
2023/12/04 00:49:59;;;;;;;0.10;0.10;;;;;;;2.43;45.59;102112.41;5011666;28;20479;-89
2023/12/04 00:52:25;;;;;;;0.13;0.13;;;;;;;2.53;45.47;102110.16;5012548;28;20419;-89
2023/12/04 00:54:51;;;;;;;0.20;0.20;;;;;;;2.48;45.09;102113.91;5009180;28;20459;-89
2023/12/04 00:57:16;;;;;;;0.40;0.40;;;;;;;2.43;45.50;102113.28;5011533;28;20872;-90
2023/12/04 00:59:42;;;;;;;1.40;0.80;;;;;;;2.47;45.34;102120.03;5007855;28;20400;-91
2023/12/04 01:02:13;;;;;;;0.67;0.67;;;;;;;2.49;44.98;102128.66;5008396;28;20751;-89
2023/12/04 01:04:46;;;;;;;0.20;0.20;;;;;;;2.37;45.69;102118.00;5011768;28;20895;-89
2023/12/04 01:07:15;;;;;;;0.60;0.57;;;;;;;2.54;45.27;102125.81;5014180;28;20427;-89
2023/12/04 01:09:41;;;;;;;0.20;0.20;;;;;;;2.68;45.16;102131.13;5015163;28;20422;-87
2023/12/04 01:12:06;;;;;;;0.40;0.40;;;;;;;2.65;44.93;102120.81;5013813;28;20392;-87
2023/12/04 01:14:41;;;;;;;0.30;0.30;;;;;;;2.85;44.73;102139.84;5016293;28;20412;-89
2023/12/04 01:17:11;;;;;;;0.40;0.40;;;;;;;2.93;45.54;102128.91;5025245;28;20388;-89
2023/12/04 01:19:37;;;;;;;0.10;0.10;;;;;;;2.91;45.16;102129.00;5024611;28;20392;-89
2023/12/04 01:22:05;;;;;;;0.20;0.20;;;;;;;2.77;45.30;102118.44;5022711;28;20487;-89
2023/12/04 01:24:32;;;;;;;0.17;0.17;;;;;;;2.83;45.19;102112.88;5022384;28;20459;-88
2023/12/04 01:27:03;;;;;;;0.20;0.20;;;;;;;2.77;45.59;102116.66;5013243;28;20419;-89
2023/12/04 01:29:32;;;;;;;0.25;0.25;;;;;;;3.01;45.73;102111.84;5011630;28;20958;-90
2023/12/04 01:31:57;;;;;;;0.20;0.20;;;;;;;3.20;45.57;102111.63;5014713;28;20451;-87
2023/12/04 01:34:23;;;;;;;0.50;0.50;;;;;;;3.04;45.18;102100.34;5013933;28;20427;-89
2023/12/04 01:36:54;;;;;;;0.20;0.20;;;;;;;3.13;45.37;102115.53;5010839;28;20392;-90
2023/12/04 01:39:26;;;;;;;0.40;0.40;;;;;;;3.08;45.14;102120.22;5010274;28;20763;-90
2023/12/04 01:41:52;;;;;;;0.10;0.10;;;;;;;3.02;45.26;102117.94;5010751;28;20772;-89
2023/12/04 01:44:18;;;;;;;0.15;0.15;;;;;;;2.73;44.60;102127.41;5013055;28;20891;-89
2023/12/04 01:46:44;;;;;;;0.10;0.10;;;;;;;2.66;45.32;102117.25;5011970;28;20450;-89
2023/12/04 01:49:10;;;;;;;0.30;0.30;;;;;;;2.66;45.01;102111.19;5010971;28;20380;-89
2023/12/04 01:51:42;;;;;;;0.10;0.10;;;;;;;2.83;44.92;102118.13;5010799;28;20395;-89
2023/12/04 01:54:15;;;;;;;8.60;1.20;;;;;;;2.68;44.53;102114.56;5011461;28;20502;-88
2023/12/04 01:56:49;;;;;;;0.30;0.30;;;;;;;2.63;45.15;102109.59;5011604;28;20392;-89
2023/12/04 01:59:15;;;;;;;0.10;0.10;;;;;;;2.54;44.79;102101.38;5010436;28;20988;-88
2023/12/04 02:01:42;;;;;;;0.10;0.10;;;;;;;2.59;45.09;102120.28;5011579;28;20768;-88
2023/12/04 02:04:11;;;;;;;0.30;0.30;;;;;;;2.77;45.12;102118.44;5012174;28;20397;-89
2023/12/04 02:06:37;;;;;;;0.20;0.20;;;;;;;3.08;45.01;102124.59;5011260;28;20496;-89
2023/12/04 02:09:03;;;;;;;0.17;0.17;;;;;;;3.00;44.39;102122.41;5011732;28;20910;-89
2023/12/04 02:11:30;;;;;;;0.17;0.17;;;;;;;3.23;44.94;102134.22;5013592;28;20396;-89
2023/12/04 02:14:03;;;;;;;0.38;0.38;;;;;;;3.16;44.98;102125.84;5013837;28;20737;-88
2023/12/04 02:16:30;;;;;;;0.10;0.10;;;;;;;3.16;44.98;102132.88;5012199;28;20388;-88
2023/12/04 02:18:59;;;;;;;0.77;0.77;;;;;;;3.19;44.73;102130.09;5011723;28;20462;-88
2023/12/04 02:21:24;;;;;;;0.10;0.10;;;;;;;3.27;44.72;102133.09;5012190;28;20767;-88
2023/12/04 02:23:54;;;;;;;0.20;0.20;;;;;;;3.27;44.87;102140.97;5012458;28;20395;-89
2023/12/04 02:26:31;;;;;;;0.10;0.10;;;;;;;3.14;44.69;102134.75;5012281;28;21003;-88
2023/12/04 02:29:01;;;;;;;0.93;0.90;;;;;;;3.16;45.03;102141.56;5011940;28;20443;-88
2023/12/04 02:31:28;;;;;;;0.20;0.20;;;;;;;3.06;44.57;102136.03;5012274;28;20394;-88
2023/12/04 02:33:57;;;;;;;0.13;0.13;;;;;;;3.25;45.10;102151.53;5012207;28;20763;-89
2023/12/04 02:36:35;;;;;;;0.10;0.10;;;;;;;3.03;44.28;102143.22;5012280;28;20403;-88
2023/12/04 02:39:01;;;;;;;0.20;0.20;;;;;;;2.87;44.39;102143.22;5011798;28;20423;-88
2023/12/04 02:41:27;;;;;;;0.17;0.17;;;;;;;2.93;44.53;102149.88;5011721;28;20923;-89
2023/12/04 02:43:58;;;;;;;0.30;0.30;;;;;;;2.83;44.17;102157.41;5021007;28;20407;-89
2023/12/04 02:46:24;;;;;;;0.20;0.20;;;;;;;2.64;44.31;102150.53;5024873;28;20407;-88
2023/12/04 02:48:52;;;;;;;0.10;0.10;;;;;;;2.70;44.54;102151.97;5027556;28;20396;-87
2023/12/04 02:51:20;;;;;;;0.50;0.30;;;;;;;2.60;44.57;102148.19;5026746;28;20384;-88
2023/12/04 02:53:48;;;;;;;0.30;0.30;;;;;;;2.32;44.53;102146.19;5014201;28;20929;-86
2023/12/04 02:56:16;;;;;;;0.10;0.10;;;;;;;2.56;44.68;102150.13;5015164;28;20384;-87
2023/12/04 02:58:42;;;;;;;0.10;0.10;;;;;;;2.45;44.29;102153.31;5017822;28;20423;-88
2023/12/04 03:01:08;;;;;;;0.10;0.10;;;;;;;2.44;44.55;102148.16;5019390;28;20387;-88
2023/12/04 03:03:36;;;;;;;0.10;0.10;;;;;;;2.32;44.79;102146.19;5018445;28;20492;-88
2023/12/04 03:06:02;;;;;;;0.50;0.50;;;;;;;2.24;44.77;102142.19;5019123;28;20388;-87
2023/12/04 03:08:30;;;;;;;0.20;0.20;;;;;;;2.22;44.55;102149.28;5015416;28;20388;-88
2023/12/04 03:10:59;;;;;;;0.10;0.10;;;;;;;2.13;44.64;102147.16;5012711;28;20399;-89
2023/12/04 03:13:24;;;;;;;0.10;0.10;;;;;;;1.90;44.90;102156.16;5012316;28;20388;-89
2023/12/04 03:15:52;;;;;;;0.10;0.10;;;;;;;1.91;45.29;102143.03;5012052;28;20882;-89
2023/12/04 03:18:23;;;;;;;0.20;0.20;;;;;;;1.95;45.16;102148.94;5011246;28;20392;-88
2023/12/04 03:20:51;;;;;;;0.10;0.10;;;;;;;2.02;45.17;102150.31;5012429;28;20385;-88
2023/12/04 03:23:22;;;;;;;0.90;0.50;;;;;;;1.92;45.44;102154.31;5017191;28;20392;-88
2023/12/04 03:25:51;;;;;;;0.17;0.17;;;;;;;1.94;45.19;102149.00;5011424;28;20392;-89
2023/12/04 03:28:17;;;;;;;0.10;0.10;;;;;;;1.67;45.47;102157.31;5011012;28;20446;-89
2023/12/04 03:30:45;;;;;;;0.17;0.17;;;;;;;1.42;46.04;102157.69;5011053;28;20490;-88
2023/12/04 03:33:13;;;;;;;0.40;0.40;;;;;;;1.51;45.90;102159.84;5010961;28;20911;-90
2023/12/04 03:35:39;;;;;;;0.10;0.10;;;;;;;1.42;46.06;102149.84;5011015;28;20384;-89
2023/12/04 03:38:07;;;;;;;0.10;0.10;;;;;;;1.59;46.00;102162.09;5013757;28;20790;-90
2023/12/04 03:40:38;;;;;;;0.20;0.20;;;;;;;1.40;46.34;102146.47;5011777;28;20460;-89
2023/12/04 03:43:07;;;;;;;0.13;0.13;;;;;;;1.22;46.79;102159.50;5013889;28;20384;-89
2023/12/04 03:45:37;;;;;;;0.17;0.17;;;;;;;1.14;46.95;102152.03;5013132;28;20546;-90
2023/12/04 03:48:03;;;;;;;0.30;0.20;;;;;;;1.09;46.99;102161.00;5008812;28;20784;-89
2023/12/04 03:50:31;;;;;;;0.20;0.20;;;;;;;1.07;47.00;102170.69;5008735;28;20392;-90
2023/12/04 03:52:59;;;;;;;0.10;0.10;;;;;;;1.21;46.74;102177.88;5025893;23;20484;-88
2023/12/04 03:55:25;;;;;;;0.10;0.10;;;;;;;1.22;47.02;102166.50;5017404;28;20444;-89
2023/12/04 03:57:55;;;;;;;0.20;0.20;;;;;;;1.37;46.51;102173.59;5032611;28;20386;-88
2023/12/04 04:00:23;;;;;;;0.30;0.30;;;;;;;1.47;46.38;102167.00;5014801;28;20395;-88
2023/12/04 04:02:51;;;;;;;1.25;0.70;;;;;;;1.56;45.95;102177.94;5030417;28;20460;-88
2023/12/04 04:05:20;;;;;;;0.20;0.20;;;;;;;1.45;46.15;102186.28;5030423;28;20387;-89
2023/12/04 04:07:53;;;;;;;0.45;0.45;;;;;;;1.57;46.48;102180.47;5030587;28;20509;-89
2023/12/04 04:10:20;;;;;;;0.10;0.10;;;;;;;1.63;46.04;102189.78;5014091;28;20379;-89
2023/12/04 04:12:49;;;;;;;0.10;0.10;;;;;;;1.79;45.40;102182.84;5032976;28;20387;-89
2023/12/04 04:15:20;;;;;;;0.40;0.20;;;;;;;1.78;45.79;102196.00;5032726;28;20390;-89
2023/12/04 04:17:49;;;;;;;0.20;0.20;;;;;;;1.71;45.87;102204.16;5033448;28;20386;-89
2023/12/04 04:20:15;;;;;;;0.40;0.40;;;;;;;1.72;45.79;102191.94;5018795;28;20429;-89
2023/12/04 04:22:41;;;;;;;0.20;0.20;;;;;;;1.76;46.14;102201.31;5032163;28;20410;-89
2023/12/04 04:25:09;;;;;;;0.23;0.23;;;;;;;1.69;45.55;102199.91;5014980;28;20393;-89
2023/12/04 04:27:36;;;;;;;1.50;1.40;;;;;;;1.74;45.71;102207.53;5014110;28;20406;-89
2023/12/04 04:30:05;;;;;;;1.30;1.20;;;;;;;1.59;45.68;102189.06;5030907;28;20390;-89
2023/12/04 04:32:34;;;;;;;2.30;1.23;;;;;;;1.69;45.98;102197.31;5048898;28;20436;-88
2023/12/04 04:35:02;;;;;;;13.20;1.70;;;;;;;1.72;45.29;102194.53;5033818;28;20477;-89
2023/12/04 04:37:28;;;;;;;0.35;0.30;;;;;;;1.71;45.73;102188.47;5047834;28;20387;-90
2023/12/04 04:39:57;;;;;;;1.20;1.20;;;;;;;1.79;45.58;102198.53;5032183;28;20397;-89
2023/12/04 04:42:26;;;;;;;0.10;0.10;;;;;;;1.90;45.36;102208.47;5048788;28;20402;-89
2023/12/04 04:44:58;;;;;;;0.20;0.20;;;;;;;1.90;45.25;102200.63;5036281;28;20382;-89
2023/12/04 04:47:23;;;;;;;0.28;0.28;;;;;;;1.63;45.66;102188.00;5030119;28;20955;-88
2023/12/04 04:49:49;;;;;;;0.80;0.80;;;;;;;1.56;45.50;102199.66;5031463;28;20398;-89
2023/12/04 04:52:20;;;;;;;0.10;0.10;;;;;;;1.55;45.54;102210.19;5015291;28;20965;-89
2023/12/04 04:54:46;;;;;;;0.30;0.30;;;;;;;1.69;45.70;102207.75;5031244;28;20406;-88
2023/12/04 04:57:14;;;;;;;0.32;0.32;;;;;;;1.71;45.73;102213.75;5033431;28;20478;-88
2023/12/04 04:59:40;;;;;;;0.10;0.10;;;;;;;1.80;45.49;102215.06;5015974;28;20382;-89
2023/12/04 05:02:13;;;;;;;0.10;0.10;;;;;;;1.74;45.09;102212.78;5032798;28;20397;-89
2023/12/04 05:04:42;;;;;;;0.40;0.40;;;;;;;1.79;45.27;102236.94;5032062;28;20395;-88
2023/12/04 05:07:08;;;;;;;0.20;0.20;;;;;;;1.79;45.54;102222.06;5032773;28;20406;-88
2023/12/04 05:09:34;;;;;;;0.97;0.90;;;;;;;1.86;45.39;102231.31;5031824;28;20889;-89
2023/12/04 05:12:05;;;;;;;0.20;0.20;;;;;;;1.78;45.38;102230.00;5041199;28;20394;-89
2023/12/04 05:14:33;;;;;;;0.17;0.17;;;;;;;1.90;45.38;102232.00;5026153;28;20427;-89
2023/12/04 05:16:59;;;;;;;0.25;0.25;;;;;;;1.83;45.25;102222.78;5048746;28;20434;-89
2023/12/04 05:19:25;;;;;;;0.25;0.25;;;;;;;1.97;45.48;102228.16;5044923;28;20424;-88
2023/12/04 05:21:50;;;;;;;0.55;0.55;;;;;;;1.92;45.98;102235.38;5045203;28;20489;-89
2023/12/04 05:24:19;;;;;;;0.80;0.50;;;;;;;1.99;45.85;102235.94;5018178;28;20437;-87
2023/12/04 05:26:45;;;;;;;0.80;0.60;;;;;;;2.05;45.47;102243.47;5018602;28;20401;-89
2023/12/04 05:29:13;;;;;;;1.00;1.00;;;;;;;2.07;45.88;102233.75;5033356;28;20489;-91
2023/12/04 05:31:41;;;;;;;0.55;0.55;;;;;;;2.10;45.35;102239.69;5011627;28;20386;-91
2023/12/04 05:34:10;;;;;;;0.10;0.10;;;;;;;1.98;45.19;102253.41;5032027;28;20915;-89
2023/12/04 05:36:38;;;;;;;0.20;0.20;;;;;;;2.04;45.58;102247.03;5033753;28;20401;-88
2023/12/04 05:39:09;;;;;;;0.20;0.20;;;;;;;2.05;45.27;102252.19;5034515;28;20418;-89
2023/12/04 05:41:42;;;;;;;0.50;0.50;;;;;;;1.89;45.50;102249.47;5036793;28;20414;-88
2023/12/04 05:44:10;;;;;;;0.27;0.27;;;;;;;1.85;45.50;102252.31;5037757;28;20427;-88
2023/12/04 05:46:42;;;;;;;0.50;0.30;;;;;;;1.76;45.37;102255.38;5039327;28;20552;-87
2023/12/04 05:49:10;;;;;;;0.17;0.17;;;;;;;1.69;45.38;102254.81;5041859;28;20391;-89
2023/12/04 05:51:35;;;;;;;0.82;0.80;;;;;;;1.46;45.64;102262.00;5042475;28;20471;-89
2023/12/04 05:54:04;;;;;;;0.20;0.20;;;;;;;1.56;45.81;102248.50;5024893;28;20926;-89
2023/12/04 05:56:38;;;;;;;0.80;0.80;;;;;;;1.56;45.48;102264.19;5041366;28;20540;-90
2023/12/04 05:59:04;;;;;;;0.40;0.40;;;;;;;1.57;45.66;102260.63;5024228;28;20421;-88
2023/12/04 06:01:37;;;;;;;0.73;0.73;;;;;;;1.72;45.39;102263.34;5021805;28;20525;-87
2023/12/04 06:04:05;;;;;;;0.22;0.22;;;;;;;1.60;45.53;102258.72;5022335;28;20469;-88
2023/12/04 06:06:31;;;;;;;0.30;0.30;;;;;;;1.68;45.74;102268.81;5038602;28;20441;-87
2023/12/04 06:08:56;;;;;;;0.63;0.63;;;;;;;1.85;45.31;102268.00;5020596;28;20456;-87
2023/12/04 06:11:24;;;;;;;0.83;0.83;;;;;;;1.62;45.27;102267.34;5020339;28;20418;-88
2023/12/04 06:13:50;;;;;;;0.50;0.50;;;;;;;1.60;45.17;102263.94;5037386;28;20386;-87
2023/12/04 06:16:16;;;;;;;0.80;0.80;;;;;;;1.69;45.75;102271.38;5017884;28;20764;-89
2023/12/04 06:18:41;;;;;;;1.75;1.15;;;;;;;1.74;45.15;102278.13;5034940;28;20963;-87
2023/12/04 06:21:07;;;;;;;0.65;0.47;;;;;;;1.90;45.06;102287.75;5036100;28;20937;-88
2023/12/04 06:23:33;;;;;;;0.10;0.10;;;;;;;2.00;45.05;102289.91;5019515;28;20401;-90
2023/12/04 06:25:59;;;;;;;0.20;0.20;;;;;;;1.98;45.02;102292.63;5037082;28;20762;-89
2023/12/04 06:28:28;;;;;;;1.30;0.50;;;;;;;2.10;44.82;102305.09;5036437;28;20777;-89
2023/12/04 06:30:54;;;;;;;0.20;0.20;;;;;;;2.31;44.73;102310.19;5020826;28;20425;-90
2023/12/04 06:33:23;;;;;;;0.22;0.22;;;;;;;2.30;44.55;102308.47;5018239;28;20395;-89
2023/12/04 06:35:49;;;;;;;0.10;0.10;;;;;;;2.29;44.55;102319.91;5034985;28;20405;-88
2023/12/04 06:38:19;;;;;;;0.40;0.40;;;;;;;2.05;44.58;102319.31;5036609;28;20896;-88
2023/12/04 06:40:45;;;;;;;0.20;0.20;;;;;;;1.96;45.22;102322.38;5036362;28;20395;-89
2023/12/04 06:43:12;;;;;;;0.20;0.20;;;;;;;2.15;44.90;102317.94;5036955;28;20761;-90
2023/12/04 06:45:40;;;;;;;0.60;0.47;;;;;;;2.10;44.89;102312.09;5019545;28;20456;-89
2023/12/04 06:48:08;;;;;;;0.35;0.35;;;;;;;2.06;45.13;102329.72;5017631;28;20421;-89
2023/12/04 06:50:34;;;;;;;0.80;0.80;;;;;;;2.21;44.88;102333.34;5017725;28;20398;-89
2023/12/04 06:53:00;;;;;;;0.70;0.53;;;;;;;2.19;44.96;102329.13;5015617;28;20416;-88
2023/12/04 06:55:25;;;;;;;0.30;0.30;;;;;;;2.26;45.21;102338.34;5015614;28;20439;-89
2023/12/04 06:57:51;;;;;;;1.40;1.30;;;;;;;2.24;44.92;102343.66;5015468;28;20415;-88
2023/12/04 07:00:19;;;;;;;0.30;0.30;;;;;;;2.28;44.93;102336.50;5032630;28;20399;-90
2023/12/04 07:02:45;;;;;;;0.25;0.25;;;;;;;2.27;45.02;102335.66;5015532;28;20783;-88
2023/12/04 07:05:13;;;;;;;0.13;0.13;;;;;;;2.43;44.86;102343.59;5015493;28;21048;-88
2023/12/04 07:07:39;;;;;;;1.23;1.23;;;;;;;2.45;44.63;102346.16;5030215;28;20772;-88
2023/12/04 07:10:05;;;;;;;0.40;0.40;;;;;;;2.41;44.54;102349.81;5030450;28;20905;-88
2023/12/04 07:12:33;;;;;;;1.10;0.97;;;;;;;2.48;44.77;102349.47;5032199;28;20447;-87
2023/12/04 07:15:01;;;;;;;0.70;0.70;;;;;;;2.44;44.60;102340.03;5016004;28;20397;-88
2023/12/04 07:17:27;;;;;;;0.60;0.60;;;;;;;2.53;44.65;102343.97;5019134;28;21111;-88
2023/12/04 07:19:53;;;;;;;0.27;0.27;;;;;;;2.64;44.85;102348.66;4976967;28;20399;-89
2023/12/04 07:22:21;;;;;;;0.80;0.50;;;;;;;2.78;44.95;102350.59;4976712;28;20400;-89
2023/12/04 07:24:47;;;;;;;0.20;0.20;;;;;;;2.81;44.61;102345.19;4976492;28;20972;-90
2023/12/04 07:27:18;;;;;;;0.50;0.50;;;;;;;2.73;44.24;102349.97;4975328;28;20403;-90
2023/12/04 07:29:48;;;;;;;0.40;0.40;;;;;;;2.84;44.32;102355.50;4976595;28;20403;-89
2023/12/04 07:32:14;;;;;;;1.60;1.30;;;;;;;2.90;44.61;102346.47;4976497;28;20906;-88
2023/12/04 07:34:39;;;;;;;0.40;0.40;;;;;;;3.00;44.13;102356.41;4977457;28;20403;-89
2023/12/04 07:37:07;;;;;;;0.88;0.80;;;;;;;3.02;43.85;102351.09;4960426;28;21007;-90
2023/12/04 07:39:33;;;;;;;0.75;0.75;;;;;;;2.98;43.80;102345.16;4977062;28;20395;-89
2023/12/04 07:42:00;;;;;;;0.30;0.30;;;;;;;2.87;43.85;102335.25;4979045;28;20813;-89
2023/12/04 07:44:29;;;;;;;0.10;0.10;;;;;;;2.66;43.73;102354.66;4961545;28;20930;-89
2023/12/04 07:46:57;;;;;;;0.50;0.50;;;;;;;2.35;43.47;102363.22;4959815;28;20547;-89
2023/12/04 07:49:23;;;;;;;0.30;0.30;;;;;;;2.28;43.92;102346.97;4976036;28;20396;-87
2023/12/04 07:51:52;;;;;;;0.25;0.22;;;;;;;2.40;43.48;102346.38;4974976;28;20409;-89
2023/12/04 07:54:19;;;;;;;0.38;0.28;;;;;;;2.65;43.45;102348.59;4977445;28;20448;-88
2023/12/04 07:56:46;;;;;;;0.30;0.22;;;;;;;2.77;43.64;102362.81;4980185;28;20392;-87
2023/12/04 07:59:12;;;;;;;0.40;0.40;;;;;;;2.85;43.42;102349.34;4975682;28;20438;-88
2023/12/04 08:01:39;;;;;;;0.30;0.30;;;;;;;2.68;42.74;102343.22;4936843;29;20387;-89
2023/12/04 08:04:07;;;;;;;0.25;0.25;;;;;;;2.91;43.15;102349.03;4927233;29;20414;-89
2023/12/04 08:06:33;;;;;;;0.37;0.20;;;;;;;2.93;42.87;102355.03;4940794;29;20796;-89
2023/12/04 08:09:06;;;;;;;0.43;0.43;;;;;;;3.29;43.15;102355.78;4924292;29;20685;-92
2023/12/04 08:11:34;;;;;;;0.20;0.20;;;;;;;3.36;42.32;102365.84;4924444;29;20999;-89
2023/12/04 08:14:00;;;;;;;1.55;0.85;;;;;;;3.32;42.27;102361.72;4957749;28;20459;-90
2023/12/04 08:16:29;;;;;;;0.30;0.30;;;;;;;3.03;42.28;102356.25;4961027;28;20451;-88
2023/12/04 08:18:58;;;;;;;0.10;0.10;;;;;;;3.22;41.79;102358.75;4962103;28;20459;-88
2023/12/04 08:21:27;;;;;;;0.20;0.20;;;;;;;3.13;41.48;102361.84;4961840;28;20419;-88
2023/12/04 08:23:52;;;;;;;1.05;0.60;;;;;;;3.24;41.37;102362.13;4977345;28;20395;-88
2023/12/04 08:26:25;;;;;;;0.63;0.63;;;;;;;3.25;41.36;102368.22;4958687;28;20474;-88
2023/12/04 08:28:52;;;;;;;0.52;0.52;;;;;;;3.42;41.13;102355.06;4957876;28;20946;-88
2023/12/04 08:31:21;;;;;;;1.05;0.95;;;;;;;3.56;40.57;102369.19;4957161;28;20438;-88
2023/12/04 08:33:47;;;;;;;0.40;0.40;;;;;;;3.63;40.85;102367.91;4960229;28;20474;-89
2023/12/04 08:36:13;;;;;;;0.70;0.40;;;;;;;3.66;40.34;102369.56;4963519;28;20399;-89
2023/12/04 08:38:42;;;;;;;0.25;0.25;;;;;;;3.77;40.86;102375.03;4973877;28;20457;-86
2023/12/04 08:41:10;;;;;;;0.28;0.28;;;;;;;3.93;40.49;102377.66;5001668;28;20417;-89
2023/12/04 08:43:36;;;;;;;0.22;0.20;;;;;;;3.89;40.34;102370.88;5014592;28;20397;-89
2023/12/04 08:46:03;;;;;;;0.20;0.20;;;;;;;3.71;39.65;102365.75;4998450;28;20844;-89
2023/12/04 08:48:32;;;;;;;0.10;0.10;;;;;;;4.02;40.05;102377.16;4998060;28;20393;-88
2023/12/04 08:50:58;;;;;;;0.50;0.50;;;;;;;3.82;39.14;102371.22;4998314;28;20428;-88
2023/12/04 08:53:27;;;;;;;0.20;0.20;;;;;;;3.96;39.79;102377.47;5025210;28;20412;-89
2023/12/04 08:55:57;;;;;;;0.10;0.10;;;;;;;4.09;39.69;102370.63;5017987;28;20415;-89
2023/12/04 08:58:23;;;;;;;0.30;0.30;;;;;;;4.35;39.18;102387.50;5017148;28;20427;-89
2023/12/04 09:00:51;;;;;;;0.30;0.30;;;;;;;4.48;39.69;102376.28;5036633;28;20387;-89
2023/12/04 09:03:20;;;;;;;0.50;0.50;;;;;;;4.46;39.12;102375.53;5020117;28;20380;-89
2023/12/04 09:05:49;;;;;;;0.40;0.40;;;;;;;4.27;38.46;102373.09;5018298;28;20385;-90
2023/12/04 09:08:15;;;;;;;0.47;0.47;;;;;;;4.32;38.94;102366.69;5017406;28;20423;-88
2023/12/04 09:10:42;;;;;;;0.32;0.32;;;;;;;4.41;38.60;102360.03;5036531;28;20388;-89
2023/12/04 09:13:11;;;;;;;0.20;0.20;;;;;;;4.43;38.56;102354.69;5019788;28;20899;-90
2023/12/04 09:15:39;;;;;;;0.40;0.40;;;;;;;4.23;38.31;102359.31;5001884;28;20776;-90
2023/12/04 09:18:08;;;;;;;0.20;0.20;;;;;;;4.64;38.96;102363.94;5019352;28;20391;-91
2023/12/04 09:20:34;;;;;;;0.20;0.20;;;;;;;4.78;38.34;102361.34;5018612;28;20396;-88
2023/12/04 09:22:59;;;;;;;0.10;0.10;;;;;;;4.65;37.99;102364.81;5022053;28;20452;-90
2023/12/04 09:25:41;;;;;;;0.90;0.40;;;;;;;5.01;38.30;102350.41;5020851;28;20407;-90
2023/12/04 09:28:07;;;;;;;0.20;0.20;;;;;;;5.18;37.45;102347.56;5034084;28;20964;-89
2023/12/04 09:30:35;;;;;;;0.20;0.20;;;;;;;5.03;37.55;102344.09;5019313;28;20496;-88
2023/12/04 09:33:01;;;;;;;0.28;0.28;;;;;;;4.86;37.55;102342.50;5020838;28;20465;-90
2023/12/04 09:35:30;;;;;;;0.30;0.23;;;;;;;4.95;38.28;102338.47;5037944;28;20510;-89
2023/12/04 09:37:56;;;;;;;0.10;0.10;;;;;;;5.16;38.15;102338.94;5021348;28;20473;-89
2023/12/04 09:40:23;;;;;;;0.20;0.20;;;;;;;5.14;37.60;102336.41;5036566;28;20918;-91
2023/12/04 09:42:53;;;;;;;0.15;0.15;;;;;;;5.21;37.95;102334.25;5036484;28;21153;-88
2023/12/04 09:45:25;;;;;;;0.30;0.30;;;;;;;4.96;37.99;102333.13;5020472;28;20403;-89
2023/12/04 09:47:53;;;;;;;0.25;0.25;;;;;;;4.75;37.99;102337.91;5021856;28;20443;-90
2023/12/04 09:50:20;;;;;;;0.38;0.38;;;;;;;5.08;38.03;102328.91;5034141;28;20402;-89
2023/12/04 09:52:53;;;;;;;0.30;0.30;;;;;;;5.08;37.93;102321.03;5018183;28;20438;-91
2023/12/04 09:55:22;;;;;;;0.40;0.40;;;;;;;5.33;37.98;102330.00;5036582;28;20479;-88
2023/12/04 09:57:49;;;;;;;0.15;0.15;;;;;;;5.17;37.38;102325.69;5037370;28;20391;-89
2023/12/04 10:00:16;;;;;;;0.35;0.35;;;;;;;5.26;37.53;102313.78;5017143;28;20390;-90
2023/12/04 10:02:43;;;;;;;0.70;0.70;;;;;;;5.30;37.61;102317.91;5016725;28;20432;-88
2023/12/04 10:05:09;;;;;;;0.30;0.30;;;;;;;5.35;38.13;102315.00;5019539;28;20911;-92
2023/12/04 10:07:40;;;;;;;0.40;0.40;;;;;;;5.68;37.85;102313.78;5035071;28;20404;-90
2023/12/04 10:10:09;;;;;;;0.20;0.20;;;;;;;5.84;37.92;102311.84;5035989;28;20904;-88
2023/12/04 10:12:45;;;;;;;0.57;0.57;;;;;;;5.90;37.38;102310.59;5020198;28;20388;-89
2023/12/04 10:15:12;;;;;;;0.10;0.10;;;;;;;5.69;37.60;102305.78;5038714;28;20384;-89
2023/12/04 10:17:40;;;;;;;0.20;0.20;;;;;;;5.70;37.99;102302.19;5018289;28;20388;-88
2023/12/04 10:20:17;;;;;;;0.10;0.10;;;;;;;5.60;38.62;102303.75;5032392;28;20392;-89
2023/12/04 10:23:12;;;;;;;0.30;0.25;;;;;;;5.87;37.89;102302.91;5015967;28;20494;-89
2023/12/04 10:25:38;;;;;;;1.50;1.40;;;;;;;6.09;37.36;102300.59;5013390;28;20442;-89
2023/12/04 10:28:11;;;;;;;0.28;0.28;;;;;;;6.13;37.33;102304.69;5019937;28;20424;-87
2023/12/04 10:30:38;;;;;;;0.20;0.20;;;;;;;6.12;37.13;102300.41;5024023;28;20391;-86
2023/12/04 10:33:10;;;;;;;0.23;0.23;;;;;;;5.97;37.61;102300.56;5020643;28;20402;-89
2023/12/04 10:35:38;;;;;;;0.50;0.50;;;;;;;5.72;38.11;102302.94;5017389;28;20520;-90
2023/12/04 10:38:09;;;;;;;0.40;0.40;;;;;;;5.66;37.91;102305.97;5018381;28;20392;-90
2023/12/04 10:40:37;;;;;;;0.20;0.20;;;;;;;5.91;38.03;102294.72;5017378;28;20760;-89
2023/12/04 10:43:11;;;;;;;0.20;0.20;;;;;;;6.13;37.80;102291.53;5036144;28;20392;-90
2023/12/04 10:45:53;;;;;;;0.20;0.20;;;;;;;6.09;37.59;102291.84;5038831;28;20385;-89
2023/12/04 10:48:19;;;;;;;0.17;0.17;;;;;;;6.23;37.81;102275.13;5035269;28;20415;-90
2023/12/04 10:50:53;;;;;;;0.20;0.20;;;;;;;6.39;37.73;102277.56;5019362;28;20403;-88
2023/12/04 10:53:22;;;;;;;0.20;0.20;;;;;;;6.28;37.61;102279.16;5035647;28;20911;-88
2023/12/04 10:55:49;;;;;;;0.20;0.20;;;;;;;6.07;37.95;102270.88;5034539;28;20400;-89
2023/12/04 10:58:26;;;;;;;1.10;1.00;;;;;;;6.09;38.18;102261.09;5017752;28;20471;-90
2023/12/04 11:00:56;;;;;;;0.50;0.50;;;;;;;6.28;37.93;102281.78;5017096;28;20410;-88
2023/12/04 11:03:46;;;;;;;0.10;0.10;;;;;;;6.26;37.87;102274.91;5031197;28;20410;-89
2023/12/04 11:06:16;;;;;;;0.10;0.10;;;;;;;6.26;37.71;102267.84;5015120;28;20404;-89
2023/12/04 11:08:48;;;;;;;0.27;0.27;;;;;;;5.94;38.28;102265.56;5033719;28;20550;-91
2023/12/04 11:11:18;;;;;;;0.70;0.70;;;;;;;6.06;38.62;102276.25;5023105;28;20396;-90
2023/12/04 11:13:49;;;;;;;0.20;0.20;;;;;;;5.94;38.69;102269.97;5038705;28;20439;-89
2023/12/04 11:16:31;;;;;;;0.60;0.60;;;;;;;5.93;38.78;102265.66;5039917;28;20388;-89
2023/12/04 11:19:47;;;;;;;0.40;0.35;;;;;;;6.15;38.80;102259.84;5027607;28;20946;-90
2023/12/04 11:22:15;;;;;;;0.47;0.47;;;;;;;6.02;39.29;102272.97;5029802;28;20388;-87
2023/12/04 11:24:41;;;;;;;0.40;0.40;;;;;;;5.99;39.66;102260.00;5029887;28;20407;-89
2023/12/04 11:27:11;;;;;;;0.33;0.33;;;;;;;6.10;39.56;102235.59;5030025;28;20926;-88
2023/12/04 11:29:40;;;;;;;0.20;0.20;;;;;;;6.22;39.38;102249.75;5022866;28;20395;-89
2023/12/04 11:32:10;;;;;;;1.02;0.93;;;;;;;6.14;39.64;102247.63;5033202;28;20407;-88
2023/12/04 11:34:38;;;;;;;0.10;0.10;;;;;;;6.28;39.26;102241.41;5035574;28;20455;-89
2023/12/04 11:37:06;;;;;;;0.10;0.10;;;;;;;6.31;39.35;102244.69;5018147;28;20396;-88
2023/12/04 11:39:37;;;;;;;2.40;2.30;;;;;;;6.40;39.22;102234.47;5018487;28;20372;-91